sensor_id;sensor_type;location;lat;lon;timestamp;temperature;humidity
52979;DHT22;63430;53.186;6.598;2023-01-28T00:01:08;2.20;99.90
52979;DHT22;63430;53.186;6.598;2023-01-28T00:03:13;2.30;99.90
52979;DHT22;63430;53.186;6.598;2023-01-28T00:05:17;2.50;99.90
52979;DHT22;63430;53.186;6.598;2023-01-28T00:07:19;2.20;99.90
52979;DHT22;63430;53.186;6.598;2023-01-28T00:09:22;2.20;99.90
52979;DHT22;63430;53.186;6.598;2023-01-28T00:11:25;2.20;99.90
52979;DHT22;63430;53.186;6.598;2023-01-28T00:13:29;2.20;99.90
52979;DHT22;63430;53.186;6.598;2023-01-28T00:15:32;2.20;99.90
52979;DHT22;63430;53.186;6.598;2023-01-28T00:17:35;2.70;99.90
52979;DHT22;63430;53.186;6.598;2023-01-28T00:19:41;2.20;99.90
52979;DHT22;63430;53.186;6.598;2023-01-28T00:21:43;2.20;99.90
52979;DHT22;63430;53.186;6.598;2023-01-28T00:23:50;2.20;99.90
52979;DHT22;63430;53.186;6.598;2023-01-28T00:25:54;2.20;99.90
52979;DHT22;63430;53.186;6.598;2023-01-28T00:27:59;2.20;99.90
52979;DHT22;63430;53.186;6.598;2023-01-28T00:30:02;2.20;99.90
52979;DHT22;63430;53.186;6.598;2023-01-28T00:32:04;2.20;99.90
52979;DHT22;63430;53.186;6.598;2023-01-28T00:34:08;2.20;99.90
52979;DHT22;63430;53.186;6.598;2023-01-28T00:36:14;2.20;99.90
52979;DHT22;63430;53.186;6.598;2023-01-28T00:38:16;2.20;99.90
52979;DHT22;63430;53.186;6.598;2023-01-28T00:40:20;2.20;99.90
52979;DHT22;63430;53.186;6.598;2023-01-28T00:42:23;2.30;99.90
52979;DHT22;63430;53.186;6.598;2023-01-28T00:44:25;2.20;99.90
52979;DHT22;63430;53.186;6.598;2023-01-28T00:46:28;2.20;99.90
52979;DHT22;63430;53.186;6.598;2023-01-28T00:48:31;2.20;99.90
52979;DHT22;63430;53.186;6.598;2023-01-28T00:50:34;2.20;99.90
52979;DHT22;63430;53.186;6.598;2023-01-28T00:52:39;2.20;99.90
52979;DHT22;63430;53.186;6.598;2023-01-28T00:54:42;2.20;99.90
52979;DHT22;63430;53.186;6.598;2023-01-28T00:56:44;2.30;99.90
52979;DHT22;63430;53.186;6.598;2023-01-28T00:58:47;2.20;99.90
52979;DHT22;63430;53.186;6.598;2023-01-28T01:00:49;2.20;99.90
52979;DHT22;63430;53.186;6.598;2023-01-28T01:02:52;2.20;99.90
52979;DHT22;63430;53.186;6.598;2023-01-28T01:04:56;2.80;99.90
52979;DHT22;63430;53.186;6.598;2023-01-28T01:07:01;2.60;99.90
52979;DHT22;63430;53.186;6.598;2023-01-28T01:09:09;2.20;99.90
52979;DHT22;63430;53.186;6.598;2023-01-28T01:11:12;2.20;99.90
52979;DHT22;63430;53.186;6.598;2023-01-28T01:13:15;2.20;99.90
52979;DHT22;63430;53.186;6.598;2023-01-28T01:15:18;2.20;99.90
52979;DHT22;63430;53.186;6.598;2023-01-28T01:17:22;2.60;99.90
52979;DHT22;63430;53.186;6.598;2023-01-28T01:19:25;2.20;99.90
52979;DHT22;63430;53.186;6.598;2023-01-28T01:21:29;2.20;99.90
52979;DHT22;63430;53.186;6.598;2023-01-28T01:23:32;2.20;99.90
52979;DHT22;63430;53.186;6.598;2023-01-28T01:25:39;2.30;99.90
52979;DHT22;63430;53.186;6.598;2023-01-28T01:27:42;2.20;99.90
52979;DHT22;63430;53.186;6.598;2023-01-28T01:29:49;2.20;99.90
52979;DHT22;63430;53.186;6.598;2023-01-28T01:31:52;2.20;99.90
52979;DHT22;63430;53.186;6.598;2023-01-28T01:33:55;2.20;99.90
52979;DHT22;63430;53.186;6.598;2023-01-28T01:35:58;2.20;99.90
52979;DHT22;63430;53.186;6.598;2023-01-28T01:38:01;2.20;99.90
52979;DHT22;63430;53.186;6.598;2023-01-28T01:40:05;2.20;99.90
52979;DHT22;63430;53.186;6.598;2023-01-28T01:42:12;2.20;99.90
52979;DHT22;63430;53.186;6.598;2023-01-28T01:46:49;2.20;99.90
52979;DHT22;63430;53.186;6.598;2023-01-28T01:48:53;2.20;99.90
52979;DHT22;63430;53.186;6.598;2023-01-28T01:50:58;2.80;99.90
52979;DHT22;63430;53.186;6.598;2023-01-28T01:53:05;2.20;99.90
52979;DHT22;63430;53.186;6.598;2023-01-28T01:55:12;2.20;99.90
52979;DHT22;63430;53.186;6.598;2023-01-28T01:57:23;2.10;99.90
52979;DHT22;63430;53.186;6.598;2023-01-28T01:59:29;2.20;99.90
52979;DHT22;63430;53.186;6.598;2023-01-28T02:01:32;2.10;99.90
52979;DHT22;63430;53.186;6.598;2023-01-28T02:03:42;2.20;99.90
52979;DHT22;63430;53.186;6.598;2023-01-28T02:05:49;2.10;99.90
52979;DHT22;63430;53.186;6.598;2023-01-28T02:07:53;2.20;99.90
52979;DHT22;63430;53.186;6.598;2023-01-28T02:09:56;2.20;99.90
52979;DHT22;63430;53.186;6.598;2023-01-28T02:12:03;2.10;99.90
52979;DHT22;63430;53.186;6.598;2023-01-28T02:14:10;2.10;99.90
52979;DHT22;63430;53.186;6.598;2023-01-28T02:16:23;2.20;99.90
52979;DHT22;63430;53.186;6.598;2023-01-28T02:18:26;2.20;99.90
52979;DHT22;63430;53.186;6.598;2023-01-28T02:20:40;2.20;99.90
52979;DHT22;63430;53.186;6.598;2023-01-28T02:23:13;2.20;99.90
52979;DHT22;63430;53.186;6.598;2023-01-28T02:25:50;2.20;99.90
52979;DHT22;63430;53.186;6.598;2023-01-28T02:28:16;2.20;99.90
52979;DHT22;63430;53.186;6.598;2023-01-28T02:30:28;2.20;99.90
52979;DHT22;63430;53.186;6.598;2023-01-28T02:32:36;2.20;99.90
52979;DHT22;63430;53.186;6.598;2023-01-28T02:34:45;2.20;99.90
52979;DHT22;63430;53.186;6.598;2023-01-28T02:36:52;2.20;99.90
52979;DHT22;63430;53.186;6.598;2023-01-28T02:39:02;2.20;99.90
52979;DHT22;63430;53.186;6.598;2023-01-28T02:41:12;2.20;99.90
52979;DHT22;63430;53.186;6.598;2023-01-28T02:43:29;2.20;99.90
52979;DHT22;63430;53.186;6.598;2023-01-28T02:45:32;2.20;99.90
52979;DHT22;63430;53.186;6.598;2023-01-28T02:47:54;2.20;99.90
52979;DHT22;63430;53.186;6.598;2023-01-28T02:50:02;2.20;99.90
52979;DHT22;63430;53.186;6.598;2023-01-28T02:52:17;2.20;99.90
52979;DHT22;63430;53.186;6.598;2023-01-28T02:54:29;2.20;99.90
52979;DHT22;63430;53.186;6.598;2023-01-28T02:56:39;2.20;99.90
52979;DHT22;63430;53.186;6.598;2023-01-28T02:58:57;2.20;99.90
52979;DHT22;63430;53.186;6.598;2023-01-28T03:01:09;2.20;99.90
52979;DHT22;63430;53.186;6.598;2023-01-28T03:03:16;2.20;99.90
52979;DHT22;63430;53.186;6.598;2023-01-28T03:05:26;2.20;99.90
52979;DHT22;63430;53.186;6.598;2023-01-28T03:07:32;2.20;99.90
52979;DHT22;63430;53.186;6.598;2023-01-28T03:09:36;2.20;99.90
52979;DHT22;63430;53.186;6.598;2023-01-28T03:11:40;2.50;99.90
52979;DHT22;63430;53.186;6.598;2023-01-28T03:14:05;2.20;99.90
52979;DHT22;63430;53.186;6.598;2023-01-28T03:16:28;2.10;99.90
52979;DHT22;63430;53.186;6.598;2023-01-28T03:18:51;2.20;99.90
52979;DHT22;63430;53.186;6.598;2023-01-28T03:21:14;2.20;99.90
52979;DHT22;63430;53.186;6.598;2023-01-28T03:23:40;2.20;99.90
52979;DHT22;63430;53.186;6.598;2023-01-28T03:26:08;2.10;99.90
52979;DHT22;63430;53.186;6.598;2023-01-28T03:28:32;2.20;99.90
52979;DHT22;63430;53.186;6.598;2023-01-28T03:31:02;2.70;99.90
52979;DHT22;63430;53.186;6.598;2023-01-28T03:33:29;2.20;99.90
52979;DHT22;63430;53.186;6.598;2023-01-28T03:35:52;2.10;99.90
52979;DHT22;63430;53.186;6.598;2023-01-28T03:38:13;2.10;99.90
52979;DHT22;63430;53.186;6.598;2023-01-28T03:40:22;2.10;99.90
52979;DHT22;63430;53.186;6.598;2023-01-28T03:42:24;2.10;99.90
52979;DHT22;63430;53.186;6.598;2023-01-28T03:44:33;2.20;99.90
52979;DHT22;63430;53.186;6.598;2023-01-28T03:46:57;2.10;99.90
52979;DHT22;63430;53.186;6.598;2023-01-28T03:49:00;2.10;99.90
52979;DHT22;63430;53.186;6.598;2023-01-28T03:51:02;2.10;99.90
52979;DHT22;63430;53.186;6.598;2023-01-28T03:53:06;2.10;99.90
52979;DHT22;63430;53.186;6.598;2023-01-28T03:55:25;2.10;99.90
52979;DHT22;63430;53.186;6.598;2023-01-28T03:57:27;2.10;99.90
52979;DHT22;63430;53.186;6.598;2023-01-28T03:59:33;2.10;99.90
52979;DHT22;63430;53.186;6.598;2023-01-28T04:01:36;2.10;99.90
52979;DHT22;63430;53.186;6.598;2023-01-28T04:03:41;2.10;99.90
52979;DHT22;63430;53.186;6.598;2023-01-28T04:05:57;2.10;99.90
52979;DHT22;63430;53.186;6.598;2023-01-28T04:08:04;2.10;99.90
52979;DHT22;63430;53.186;6.598;2023-01-28T04:10:25;2.10;99.90
52979;DHT22;63430;53.186;6.598;2023-01-28T04:12:38;2.10;99.90
52979;DHT22;63430;53.186;6.598;2023-01-28T04:14:40;2.10;99.90
52979;DHT22;63430;53.186;6.598;2023-01-28T04:16:48;2.10;99.90
52979;DHT22;63430;53.186;6.598;2023-01-28T04:18:54;2.10;99.90
52979;DHT22;63430;53.186;6.598;2023-01-28T04:20:57;2.10;99.90
52979;DHT22;63430;53.186;6.598;2023-01-28T04:22:59;2.00;99.90
52979;DHT22;63430;53.186;6.598;2023-01-28T04:25:04;2.10;99.90
52979;DHT22;63430;53.186;6.598;2023-01-28T04:27:07;2.00;99.90
52979;DHT22;63430;53.186;6.598;2023-01-28T04:29:09;2.00;99.90
52979;DHT22;63430;53.186;6.598;2023-01-28T04:31:13;2.00;99.90
52979;DHT22;63430;53.186;6.598;2023-01-28T04:33:15;2.10;99.90
52979;DHT22;63430;53.186;6.598;2023-01-28T04:35:35;2.00;99.90
52979;DHT22;63430;53.186;6.598;2023-01-28T04:37:43;2.10;99.90
52979;DHT22;63430;53.186;6.598;2023-01-28T04:40:20;2.00;99.90
52979;DHT22;63430;53.186;6.598;2023-01-28T04:42:28;2.00;99.90
52979;DHT22;63430;53.186;6.598;2023-01-28T04:44:52;2.00;99.90
52979;DHT22;63430;53.186;6.598;2023-01-28T04:47:24;2.00;99.90
52979;DHT22;63430;53.186;6.598;2023-01-28T04:49:39;2.00;99.90
52979;DHT22;63430;53.186;6.598;2023-01-28T04:52:10;2.00;99.90
52979;DHT22;63430;53.186;6.598;2023-01-28T04:54:35;2.00;99.90
52979;DHT22;63430;53.186;6.598;2023-01-28T04:56:39;2.00;99.90
52979;DHT22;63430;53.186;6.598;2023-01-28T04:58:41;2.00;99.90
52979;DHT22;63430;53.186;6.598;2023-01-28T05:00:53;2.00;99.90
52979;DHT22;63430;53.186;6.598;2023-01-28T05:02:56;2.00;99.90
52979;DHT22;63430;53.186;6.598;2023-01-28T05:04:59;2.00;99.90
52979;DHT22;63430;53.186;6.598;2023-01-28T05:07:22;2.00;99.90
52979;DHT22;63430;53.186;6.598;2023-01-28T05:09:25;2.00;99.90
52979;DHT22;63430;53.186;6.598;2023-01-28T05:11:27;2.00;99.90
52979;DHT22;63430;53.186;6.598;2023-01-28T05:13:35;2.00;99.90
52979;DHT22;63430;53.186;6.598;2023-01-28T05:15:38;2.00;99.90
52979;DHT22;63430;53.186;6.598;2023-01-28T05:17:40;2.00;99.90
52979;DHT22;63430;53.186;6.598;2023-01-28T05:19:46;2.00;99.90
52979;DHT22;63430;53.186;6.598;2023-01-28T05:21:54;1.90;99.90
52979;DHT22;63430;53.186;6.598;2023-01-28T05:24:15;2.00;99.90
52979;DHT22;63430;53.186;6.598;2023-01-28T05:26:18;1.90;99.90
52979;DHT22;63430;53.186;6.598;2023-01-28T05:28:22;1.90;99.90
52979;DHT22;63430;53.186;6.598;2023-01-28T05:30:24;2.10;99.90
52979;DHT22;63430;53.186;6.598;2023-01-28T05:32:26;2.00;99.90
52979;DHT22;63430;53.186;6.598;2023-01-28T05:34:29;1.90;99.90
52979;DHT22;63430;53.186;6.598;2023-01-28T05:36:34;1.90;99.90
52979;DHT22;63430;53.186;6.598;2023-01-28T05:38:44;1.90;99.90
52979;DHT22;63430;53.186;6.598;2023-01-28T05:40:49;1.90;99.90
52979;DHT22;63430;53.186;6.598;2023-01-28T05:42:52;1.90;99.90
52979;DHT22;63430;53.186;6.598;2023-01-28T05:45:07;1.90;99.90
52979;DHT22;63430;53.186;6.598;2023-01-28T05:47:32;1.90;99.90
52979;DHT22;63430;53.186;6.598;2023-01-28T05:49:59;1.90;99.90
52979;DHT22;63430;53.186;6.598;2023-01-28T05:52:07;1.90;99.90
52979;DHT22;63430;53.186;6.598;2023-01-28T05:54:10;1.90;99.90
52979;DHT22;63430;53.186;6.598;2023-01-28T05:56:15;1.90;99.90
52979;DHT22;63430;53.186;6.598;2023-01-28T05:58:18;1.90;99.90
52979;DHT22;63430;53.186;6.598;2023-01-28T06:00:21;1.90;99.90
52979;DHT22;63430;53.186;6.598;2023-01-28T06:02:23;1.90;99.90
52979;DHT22;63430;53.186;6.598;2023-01-28T06:04:29;1.90;99.90
52979;DHT22;63430;53.186;6.598;2023-01-28T06:06:33;1.90;99.90
52979;DHT22;63430;53.186;6.598;2023-01-28T06:08:38;1.90;99.90
52979;DHT22;63430;53.186;6.598;2023-01-28T06:10:40;1.90;99.90
52979;DHT22;63430;53.186;6.598;2023-01-28T06:12:46;1.90;99.90
52979;DHT22;63430;53.186;6.598;2023-01-28T06:15:12;1.90;99.90
52979;DHT22;63430;53.186;6.598;2023-01-28T06:17:40;1.90;99.90
52979;DHT22;63430;53.186;6.598;2023-01-28T06:19:56;1.90;99.90
52979;DHT22;63430;53.186;6.598;2023-01-28T06:21:58;1.90;99.90
52979;DHT22;63430;53.186;6.598;2023-01-28T06:24:01;2.60;99.90
52979;DHT22;63430;53.186;6.598;2023-01-28T06:26:05;2.60;99.90
52979;DHT22;63430;53.186;6.598;2023-01-28T06:28:11;1.90;99.90
52979;DHT22;63430;53.186;6.598;2023-01-28T06:30:14;1.90;99.90
52979;DHT22;63430;53.186;6.598;2023-01-28T06:32:17;1.90;99.90
52979;DHT22;63430;53.186;6.598;2023-01-28T06:34:20;1.80;99.90
52979;DHT22;63430;53.186;6.598;2023-01-28T06:36:22;1.80;99.90
52979;DHT22;63430;53.186;6.598;2023-01-28T06:38:25;1.90;99.90
52979;DHT22;63430;53.186;6.598;2023-01-28T06:40:27;1.90;99.90
52979;DHT22;63430;53.186;6.598;2023-01-28T06:42:30;1.80;99.90
52979;DHT22;63430;53.186;6.598;2023-01-28T06:44:37;1.80;99.90
52979;DHT22;63430;53.186;6.598;2023-01-28T06:46:39;1.40;99.90
52979;DHT22;63430;53.186;6.598;2023-01-28T06:48:41;1.80;99.90
52979;DHT22;63430;53.186;6.598;2023-01-28T06:50:45;1.80;99.90
52979;DHT22;63430;53.186;6.598;2023-01-28T06:52:48;1.80;99.90
52979;DHT22;63430;53.186;6.598;2023-01-28T06:54:50;1.80;99.90
52979;DHT22;63430;53.186;6.598;2023-01-28T06:56:53;1.90;99.90
52979;DHT22;63430;53.186;6.598;2023-01-28T06:58:55;2.50;99.90
52979;DHT22;63430;53.186;6.598;2023-01-28T07:01:00;1.60;99.90
52979;DHT22;63430;53.186;6.598;2023-01-28T07:03:03;1.70;99.90
52979;DHT22;63430;53.186;6.598;2023-01-28T07:05:06;1.80;99.90
52979;DHT22;63430;53.186;6.598;2023-01-28T07:07:09;1.70;99.90
52979;DHT22;63430;53.186;6.598;2023-01-28T07:09:11;1.70;99.90
52979;DHT22;63430;53.186;6.598;2023-01-28T07:11:13;1.70;99.90
52979;DHT22;63430;53.186;6.598;2023-01-28T07:13:16;1.70;99.90
52979;DHT22;63430;53.186;6.598;2023-01-28T07:15:18;1.10;99.90
52979;DHT22;63430;53.186;6.598;2023-01-28T07:17:23;1.70;99.90
52979;DHT22;63430;53.186;6.598;2023-01-28T07:19:26;1.60;99.90
52979;DHT22;63430;53.186;6.598;2023-01-28T07:21:32;1.60;99.90
52979;DHT22;63430;53.186;6.598;2023-01-28T07:23:35;1.60;99.90
52979;DHT22;63430;53.186;6.598;2023-01-28T07:25:37;1.60;99.90
52979;DHT22;63430;53.186;6.598;2023-01-28T07:27:45;1.80;99.90
52979;DHT22;63430;53.186;6.598;2023-01-28T07:29:47;1.70;99.90
52979;DHT22;63430;53.186;6.598;2023-01-28T07:31:51;1.60;99.90
52979;DHT22;63430;53.186;6.598;2023-01-28T07:33:56;1.50;99.90
52979;DHT22;63430;53.186;6.598;2023-01-28T07:35:58;1.50;99.90
52979;DHT22;63430;53.186;6.598;2023-01-28T07:38:01;1.50;99.90
52979;DHT22;63430;53.186;6.598;2023-01-28T07:40:04;1.40;99.90
52979;DHT22;63430;53.186;6.598;2023-01-28T07:42:07;1.40;99.90
52979;DHT22;63430;53.186;6.598;2023-01-28T07:44:19;1.40;99.90
52979;DHT22;63430;53.186;6.598;2023-01-28T07:46:22;1.30;99.90
52979;DHT22;63430;53.186;6.598;2023-01-28T07:48:24;3.00;99.90
52979;DHT22;63430;53.186;6.598;2023-01-28T07:50:31;1.30;99.90
52979;DHT22;63430;53.186;6.598;2023-01-28T07:52:35;1.30;99.90
52979;DHT22;63430;53.186;6.598;2023-01-28T07:54:45;1.20;99.90
52979;DHT22;63430;53.186;6.598;2023-01-28T07:56:47;1.20;99.90
52979;DHT22;63430;53.186;6.598;2023-01-28T07:58:50;1.20;99.90
52979;DHT22;63430;53.186;6.598;2023-01-28T08:00:55;1.20;99.90
52979;DHT22;63430;53.186;6.598;2023-01-28T08:02:59;1.20;99.90
52979;DHT22;63430;53.186;6.598;2023-01-28T08:05:02;1.20;99.90
52979;DHT22;63430;53.186;6.598;2023-01-28T08:07:08;1.20;99.90
52979;DHT22;63430;53.186;6.598;2023-01-28T08:09:10;2.50;99.90
52979;DHT22;63430;53.186;6.598;2023-01-28T08:11:13;1.30;99.90
52979;DHT22;63430;53.186;6.598;2023-01-28T08:13:16;1.30;99.90
52979;DHT22;63430;53.186;6.598;2023-01-28T08:15:19;1.30;99.90
52979;DHT22;63430;53.186;6.598;2023-01-28T08:17:22;1.30;99.90
52979;DHT22;63430;53.186;6.598;2023-01-28T08:19:24;1.30;99.90
52979;DHT22;63430;53.186;6.598;2023-01-28T08:21:27;1.30;99.90
52979;DHT22;63430;53.186;6.598;2023-01-28T08:23:33;1.30;99.90
52979;DHT22;63430;53.186;6.598;2023-01-28T08:25:36;1.30;99.90
52979;DHT22;63430;53.186;6.598;2023-01-28T08:27:39;1.40;99.90
52979;DHT22;63430;53.186;6.598;2023-01-28T08:29:41;1.40;99.90
52979;DHT22;63430;53.186;6.598;2023-01-28T08:31:44;1.50;99.90
52979;DHT22;63430;53.186;6.598;2023-01-28T08:33:47;1.60;99.90
52979;DHT22;63430;53.186;6.598;2023-01-28T08:35:49;1.70;99.90
52979;DHT22;63430;53.186;6.598;2023-01-28T08:37:52;1.80;99.90
52979;DHT22;63430;53.186;6.598;2023-01-28T08:39:57;1.90;99.90
52979;DHT22;63430;53.186;6.598;2023-01-28T08:42:00;2.00;99.90
52979;DHT22;63430;53.186;6.598;2023-01-28T08:44:02;2.00;99.90
52979;DHT22;63430;53.186;6.598;2023-01-28T08:46:05;2.10;99.90
52979;DHT22;63430;53.186;6.598;2023-01-28T08:48:12;2.00;99.90
52979;DHT22;63430;53.186;6.598;2023-01-28T08:50:16;2.00;99.90
52979;DHT22;63430;53.186;6.598;2023-01-28T08:52:19;2.00;99.90
52979;DHT22;63430;53.186;6.598;2023-01-28T08:54:22;2.00;99.90
52979;DHT22;63430;53.186;6.598;2023-01-28T08:56:27;1.90;99.90
52979;DHT22;63430;53.186;6.598;2023-01-28T08:58:29;1.90;99.90
52979;DHT22;63430;53.186;6.598;2023-01-28T09:00:32;1.90;99.90
52979;DHT22;63430;53.186;6.598;2023-01-28T09:02:35;1.90;99.90
52979;DHT22;63430;53.186;6.598;2023-01-28T09:04:37;1.90;99.90
52979;DHT22;63430;53.186;6.598;2023-01-28T09:06:39;1.90;99.90
52979;DHT22;63430;53.186;6.598;2023-01-28T09:08:42;1.90;99.90
52979;DHT22;63430;53.186;6.598;2023-01-28T09:10:44;2.00;99.90
52979;DHT22;63430;53.186;6.598;2023-01-28T09:12:49;2.10;99.90
52979;DHT22;63430;53.186;6.598;2023-01-28T09:14:52;2.70;99.90
52979;DHT22;63430;53.186;6.598;2023-01-28T09:16:54;2.20;99.90
52979;DHT22;63430;53.186;6.598;2023-01-28T09:18:57;2.20;99.90
52979;DHT22;63430;53.186;6.598;2023-01-28T09:20:59;2.30;99.90
52979;DHT22;63430;53.186;6.598;2023-01-28T09:23:09;3.10;99.90
52979;DHT22;63430;53.186;6.598;2023-01-28T09:25:12;2.30;99.90
52979;DHT22;63430;53.186;6.598;2023-01-28T09:27:15;2.40;99.90
52979;DHT22;63430;53.186;6.598;2023-01-28T09:29:20;2.50;99.90
52979;DHT22;63430;53.186;6.598;2023-01-28T09:31:22;2.50;99.90
52979;DHT22;63430;53.186;6.598;2023-01-28T09:33:25;2.70;99.90
52979;DHT22;63430;53.186;6.598;2023-01-28T09:35:27;2.80;99.90
52979;DHT22;63430;53.186;6.598;2023-01-28T09:37:30;2.90;99.90
52979;DHT22;63430;53.186;6.598;2023-01-28T09:39:32;3.00;99.90
52979;DHT22;63430;53.186;6.598;2023-01-28T09:41:43;3.10;99.90
52979;DHT22;63430;53.186;6.598;2023-01-28T09:44:01;3.20;99.90
52979;DHT22;63430;53.186;6.598;2023-01-28T09:46:11;3.20;99.90
52979;DHT22;63430;53.186;6.598;2023-01-28T09:48:18;3.10;99.90
52979;DHT22;63430;53.186;6.598;2023-01-28T09:50:26;3.20;99.90
52979;DHT22;63430;53.186;6.598;2023-01-28T09:52:34;2.90;99.90
52979;DHT22;63430;53.186;6.598;2023-01-28T09:54:41;3.70;99.90
52979;DHT22;63430;53.186;6.598;2023-01-28T09:56:47;3.10;99.90
52979;DHT22;63430;53.186;6.598;2023-01-28T09:58:53;3.10;99.90
52979;DHT22;63430;53.186;6.598;2023-01-28T10:00:58;3.10;99.90
52979;DHT22;63430;53.186;6.598;2023-01-28T10:05:52;3.10;99.90
52979;DHT22;63430;53.186;6.598;2023-01-28T10:08:06;3.10;99.90
52979;DHT22;63430;53.186;6.598;2023-01-28T10:10:15;3.20;99.90
52979;DHT22;63430;53.186;6.598;2023-01-28T10:12:38;3.20;99.90
52979;DHT22;63430;53.186;6.598;2023-01-28T10:14:55;3.30;99.90
52979;DHT22;63430;53.186;6.598;2023-01-28T10:17:04;4.50;99.90
52979;DHT22;63430;53.186;6.598;2023-01-28T10:19:14;3.30;99.90
52979;DHT22;63430;53.186;6.598;2023-01-28T10:21:24;3.30;99.90
52979;DHT22;63430;53.186;6.598;2023-01-28T10:23:49;3.40;99.90
52979;DHT22;63430;53.186;6.598;2023-01-28T10:25:58;3.30;99.90
52979;DHT22;63430;53.186;6.598;2023-01-28T10:28:01;3.30;99.90
52979;DHT22;63430;53.186;6.598;2023-01-28T10:30:15;4.50;99.90
52979;DHT22;63430;53.186;6.598;2023-01-28T10:32:21;3.50;99.90
52979;DHT22;63430;53.186;6.598;2023-01-28T10:34:24;3.60;99.90
52979;DHT22;63430;53.186;6.598;2023-01-28T10:36:29;3.80;99.90
52979;DHT22;63430;53.186;6.598;2023-01-28T10:38:32;4.00;99.90
52979;DHT22;63430;53.186;6.598;2023-01-28T10:40:35;4.10;99.90
52979;DHT22;63430;53.186;6.598;2023-01-28T10:42:38;4.30;99.90
52979;DHT22;63430;53.186;6.598;2023-01-28T10:44:42;4.40;99.90
52979;DHT22;63430;53.186;6.598;2023-01-28T10:46:47;4.50;99.90
52979;DHT22;63430;53.186;6.598;2023-01-28T10:48:57;4.70;99.90
52979;DHT22;63430;53.186;6.598;2023-01-28T10:51:02;4.80;99.90
52979;DHT22;63430;53.186;6.598;2023-01-28T10:53:09;4.90;99.90
52979;DHT22;63430;53.186;6.598;2023-01-28T10:55:13;5.00;99.90
52979;DHT22;63430;53.186;6.598;2023-01-28T10:57:17;5.20;99.90
52979;DHT22;63430;53.186;6.598;2023-01-28T10:59:26;5.10;99.90
52979;DHT22;63430;53.186;6.598;2023-01-28T11:01:43;5.10;99.90
52979;DHT22;63430;53.186;6.598;2023-01-28T11:03:54;5.00;99.90
52979;DHT22;63430;53.186;6.598;2023-01-28T11:05:58;4.90;99.90
52979;DHT22;63430;53.186;6.598;2023-01-28T11:08:05;4.90;99.90
52979;DHT22;63430;53.186;6.598;2023-01-28T11:10:38;4.80;99.90
52979;DHT22;63430;53.186;6.598;2023-01-28T11:12:41;5.00;99.90
52979;DHT22;63430;53.186;6.598;2023-01-28T11:14:49;5.00;99.90
52979;DHT22;63430;53.186;6.598;2023-01-28T11:16:55;5.10;99.90
52979;DHT22;63430;53.186;6.598;2023-01-28T11:19:02;5.00;99.90
52979;DHT22;63430;53.186;6.598;2023-01-28T11:21:13;5.00;99.90
52979;DHT22;63430;53.186;6.598;2023-01-28T11:23:22;4.30;99.90
52979;DHT22;63430;53.186;6.598;2023-01-28T11:25:30;5.00;99.90
52979;DHT22;63430;53.186;6.598;2023-01-28T11:27:34;5.00;99.90
52979;DHT22;63430;53.186;6.598;2023-01-28T11:29:38;5.00;99.90
52979;DHT22;63430;53.186;6.598;2023-01-28T11:31:43;5.20;99.90
52979;DHT22;63430;53.186;6.598;2023-01-28T11:33:49;5.00;99.90
52979;DHT22;63430;53.186;6.598;2023-01-28T11:35:53;5.00;99.90
52979;DHT22;63430;53.186;6.598;2023-01-28T11:37:56;5.00;99.90
52979;DHT22;63430;53.186;6.598;2023-01-28T11:40:08;5.10;99.90
52979;DHT22;63430;53.186;6.598;2023-01-28T11:42:20;5.10;99.90
52979;DHT22;63430;53.186;6.598;2023-01-28T11:44:24;5.10;99.90
52979;DHT22;63430;53.186;6.598;2023-01-28T11:46:46;5.10;99.90
52979;DHT22;63430;53.186;6.598;2023-01-28T11:49:00;5.10;99.90
52979;DHT22;63430;53.186;6.598;2023-01-28T11:51:17;5.10;99.90
52979;DHT22;63430;53.186;6.598;2023-01-28T11:53:45;5.10;99.90
52979;DHT22;63430;53.186;6.598;2023-01-28T11:56:02;5.10;99.90
52979;DHT22;63430;53.186;6.598;2023-01-28T11:58:19;5.10;99.90
52979;DHT22;63430;53.186;6.598;2023-01-28T12:00:42;5.10;99.90
52979;DHT22;63430;53.186;6.598;2023-01-28T12:02:50;5.10;99.90
52979;DHT22;63430;53.186;6.598;2023-01-28T12:05:06;5.10;99.90
52979;DHT22;63430;53.186;6.598;2023-01-28T12:07:31;5.10;99.90
52979;DHT22;63430;53.186;6.598;2023-01-28T12:09:43;5.10;99.90
52979;DHT22;63430;53.186;6.598;2023-01-28T12:11:58;5.70;99.90
52979;DHT22;63430;53.186;6.598;2023-01-28T12:14:25;5.00;99.90
52979;DHT22;63430;53.186;6.598;2023-01-28T12:16:39;5.00;99.90
52979;DHT22;63430;53.186;6.598;2023-01-28T12:19:02;5.00;99.90
52979;DHT22;63430;53.186;6.598;2023-01-28T12:21:15;4.90;99.90
52979;DHT22;63430;53.186;6.598;2023-01-28T12:23:33;4.90;99.90
52979;DHT22;63430;53.186;6.598;2023-01-28T12:25:50;4.90;99.90
52979;DHT22;63430;53.186;6.598;2023-01-28T12:28:02;5.00;99.90
52979;DHT22;63430;53.186;6.598;2023-01-28T12:30:23;5.00;99.90
52979;DHT22;63430;53.186;6.598;2023-01-28T12:32:38;5.10;99.90
52979;DHT22;63430;53.186;6.598;2023-01-28T12:34:56;5.20;99.90
52979;DHT22;63430;53.186;6.598;2023-01-28T12:37:06;5.10;99.90
52979;DHT22;63430;53.186;6.598;2023-01-28T12:39:24;5.00;99.90
52979;DHT22;63430;53.186;6.598;2023-01-28T12:41:35;5.00;99.90
52979;DHT22;63430;53.186;6.598;2023-01-28T12:43:47;4.60;99.90
52979;DHT22;63430;53.186;6.598;2023-01-28T12:45:56;5.10;99.90
52979;DHT22;63430;53.186;6.598;2023-01-28T12:48:07;5.20;99.90
52979;DHT22;63430;53.186;6.598;2023-01-28T12:50:14;5.20;99.90
52979;DHT22;63430;53.186;6.598;2023-01-28T12:52:22;5.20;99.90
52979;DHT22;63430;53.186;6.598;2023-01-28T12:54:32;5.30;99.90
52979;DHT22;63430;53.186;6.598;2023-01-28T12:56:39;5.30;99.90
52979;DHT22;63430;53.186;6.598;2023-01-28T12:58:47;5.30;99.90
52979;DHT22;63430;53.186;6.598;2023-01-28T13:00:56;5.40;99.90
52979;DHT22;63430;53.186;6.598;2023-01-28T13:03:09;5.40;99.90
52979;DHT22;63430;53.186;6.598;2023-01-28T13:05:15;5.40;99.90
52979;DHT22;63430;53.186;6.598;2023-01-28T13:07:22;5.30;99.90
52979;DHT22;63430;53.186;6.598;2023-01-28T13:09:26;5.30;99.90
52979;DHT22;63430;53.186;6.598;2023-01-28T13:11:33;5.40;99.90
52979;DHT22;63430;53.186;6.598;2023-01-28T13:13:38;5.50;99.90
52979;DHT22;63430;53.186;6.598;2023-01-28T13:15:44;5.60;99.90
52979;DHT22;63430;53.186;6.598;2023-01-28T13:17:58;5.70;99.90
52979;DHT22;63430;53.186;6.598;2023-01-28T13:20:13;5.70;99.90
52979;DHT22;63430;53.186;6.598;2023-01-28T13:22:25;5.80;99.90
52979;DHT22;63430;53.186;6.598;2023-01-28T13:24:31;5.30;99.90
52979;DHT22;63430;53.186;6.598;2023-01-28T13:26:41;5.80;99.90
52979;DHT22;63430;53.186;6.598;2023-01-28T13:28:46;4.90;99.90
52979;DHT22;63430;53.186;6.598;2023-01-28T13:30:49;5.70;99.90
52979;DHT22;63430;53.186;6.598;2023-01-28T13:32:59;5.70;99.90
52979;DHT22;63430;53.186;6.598;2023-01-28T13:35:05;5.70;99.90
52979;DHT22;63430;53.186;6.598;2023-01-28T13:37:18;5.60;99.90
52979;DHT22;63430;53.186;6.598;2023-01-28T13:39:24;5.60;99.90
52979;DHT22;63430;53.186;6.598;2023-01-28T13:41:37;5.60;99.90
52979;DHT22;63430;53.186;6.598;2023-01-28T13:43:41;5.50;99.90
52979;DHT22;63430;53.186;6.598;2023-01-28T13:45:54;5.70;99.90